sensor_id;sensor_type;location;lat;lon;timestamp;P1;durP1;ratioP1;P2;durP2;ratioP2
53903;SDS011;39812;52.430;16.936;2022-10-16T00:01:45;30.25;;;15.63;;
53903;SDS011;39812;52.430;16.936;2022-10-16T00:04:11;33.85;;;16.60;;
53903;SDS011;39812;52.430;16.936;2022-10-16T00:06:37;35.55;;;17.38;;
53903;SDS011;39812;52.430;16.936;2022-10-16T00:09:03;32.85;;;17.88;;
53903;SDS011;39812;52.430;16.936;2022-10-16T00:11:30;34.20;;;18.05;;
53903;SDS011;39812;52.430;16.936;2022-10-16T00:14:03;36.13;;;18.40;;
53903;SDS011;39812;52.430;16.936;2022-10-16T00:16:30;34.88;;;17.92;;
53903;SDS011;39812;52.430;16.936;2022-10-16T00:18:57;33.30;;;18.02;;
53903;SDS011;39812;52.430;16.936;2022-10-16T00:21:23;37.90;;;17.15;;
53903;SDS011;39812;52.430;16.936;2022-10-16T00:24:02;30.35;;;15.93;;
53903;SDS011;39812;52.430;16.936;2022-10-16T00:26:30;28.45;;;15.30;;
53903;SDS011;39812;52.430;16.936;2022-10-16T00:28:56;28.77;;;16.08;;
53903;SDS011;39812;52.430;16.936;2022-10-16T00:31:22;25.90;;;13.70;;
53903;SDS011;39812;52.430;16.936;2022-10-16T00:33:48;25.58;;;14.93;;
53903;SDS011;39812;52.430;16.936;2022-10-16T00:36:14;28.42;;;15.02;;
53903;SDS011;39812;52.430;16.936;2022-10-16T00:38:42;27.27;;;14.95;;
53903;SDS011;39812;52.430;16.936;2022-10-16T00:41:10;25.70;;;13.98;;
53903;SDS011;39812;52.430;16.936;2022-10-16T00:46:53;27.30;;;12.90;;
53903;SDS011;39812;52.430;16.936;2022-10-16T00:49:19;22.25;;;11.88;;
53903;SDS011;39812;52.430;16.936;2022-10-16T00:51:50;24.10;;;12.60;;
53903;SDS011;39812;52.430;16.936;2022-10-16T00:54:24;21.88;;;12.55;;
53903;SDS011;39812;52.430;16.936;2022-10-16T00:56:52;22.88;;;12.90;;
53903;SDS011;39812;52.430;16.936;2022-10-16T00:59:23;20.00;;;10.65;;
53903;SDS011;39812;52.430;16.936;2022-10-16T01:01:51;20.48;;;12.10;;
53903;SDS011;39812;52.430;16.936;2022-10-16T01:04:17;20.92;;;12.32;;
53903;SDS011;39812;52.430;16.936;2022-10-16T01:06:50;20.90;;;12.43;;
53903;SDS011;39812;52.430;16.936;2022-10-16T01:09:17;24.88;;;13.02;;
53903;SDS011;39812;52.430;16.936;2022-10-16T01:12:01;23.88;;;11.80;;
53903;SDS011;39812;52.430;16.936;2022-10-16T01:14:40;22.40;;;12.63;;
53903;SDS011;39812;52.430;16.936;2022-10-16T01:20:05;23.50;;;12.38;;
53903;SDS011;39812;52.430;16.936;2022-10-16T01:22:39;20.20;;;11.60;;
53903;SDS011;39812;52.430;16.936;2022-10-16T01:25:28;16.35;;;10.85;;
53903;SDS011;39812;52.430;16.936;2022-10-16T01:28:14;18.05;;;11.50;;
53903;SDS011;39812;52.430;16.936;2022-10-16T01:30:43;20.83;;;10.93;;
53903;SDS011;39812;52.430;16.936;2022-10-16T01:33:17;18.88;;;10.63;;
53903;SDS011;39812;52.430;16.936;2022-10-16T01:35:52;18.67;;;11.40;;
53903;SDS011;39812;52.430;16.936;2022-10-16T01:38:26;18.15;;;10.63;;
53903;SDS011;39812;52.430;16.936;2022-10-16T01:41:03;17.40;;;10.27;;
53903;SDS011;39812;52.430;16.936;2022-10-16T01:43:41;21.05;;;11.48;;
53903;SDS011;39812;52.430;16.936;2022-10-16T01:46:11;17.70;;;10.77;;
53903;SDS011;39812;52.430;16.936;2022-10-16T01:48:40;17.92;;;10.63;;
53903;SDS011;39812;52.430;16.936;2022-10-16T01:51:07;22.92;;;12.10;;
53903;SDS011;39812;52.430;16.936;2022-10-16T01:53:35;19.73;;;10.57;;
53903;SDS011;39812;52.430;16.936;2022-10-16T01:56:02;18.23;;;10.55;;
53903;SDS011;39812;52.430;16.936;2022-10-16T01:58:33;17.30;;;10.75;;
53903;SDS011;39812;52.430;16.936;2022-10-16T02:01:03;19.60;;;11.15;;
53903;SDS011;39812;52.430;16.936;2022-10-16T02:03:32;17.67;;;10.02;;
53903;SDS011;39812;52.430;16.936;2022-10-16T02:06:00;16.98;;;10.82;;
53903;SDS011;39812;52.430;16.936;2022-10-16T02:08:26;18.88;;;10.23;;
53903;SDS011;39812;52.430;16.936;2022-10-16T02:10:55;18.60;;;10.50;;
53903;SDS011;39812;52.430;16.936;2022-10-16T02:15:48;15.93;;;10.52;;
53903;SDS011;39812;52.430;16.936;2022-10-16T02:18:14;17.52;;;10.00;;
53903;SDS011;39812;52.430;16.936;2022-10-16T02:20:51;19.13;;;9.65;;
53903;SDS011;39812;52.430;16.936;2022-10-16T02:23:24;17.98;;;9.93;;
53903;SDS011;39812;52.430;16.936;2022-10-16T02:26:13;20.05;;;10.43;;
53903;SDS011;39812;52.430;16.936;2022-10-16T02:28:42;15.60;;;9.40;;
53903;SDS011;39812;52.430;16.936;2022-10-16T02:31:12;17.63;;;10.77;;
53903;SDS011;39812;52.430;16.936;2022-10-16T02:33:43;20.05;;;9.68;;
53903;SDS011;39812;52.430;16.936;2022-10-16T02:36:11;20.20;;;10.20;;
53903;SDS011;39812;52.430;16.936;2022-10-16T02:38:37;15.75;;;10.20;;
53903;SDS011;39812;52.430;16.936;2022-10-16T02:41:04;14.65;;;9.65;;
53903;SDS011;39812;52.430;16.936;2022-10-16T02:43:30;16.58;;;10.70;;
53903;SDS011;39812;52.430;16.936;2022-10-16T02:45:56;18.70;;;10.25;;
53903;SDS011;39812;52.430;16.936;2022-10-16T02:48:21;18.05;;;10.50;;
53903;SDS011;39812;52.430;16.936;2022-10-16T02:50:46;17.80;;;9.98;;
53903;SDS011;39812;52.430;16.936;2022-10-16T02:53:12;19.55;;;10.90;;
53903;SDS011;39812;52.430;16.936;2022-10-16T02:55:37;19.88;;;10.70;;
53903;SDS011;39812;52.430;16.936;2022-10-16T02:58:03;19.33;;;11.13;;
53903;SDS011;39812;52.430;16.936;2022-10-16T03:00:28;17.40;;;10.52;;
53903;SDS011;39812;52.430;16.936;2022-10-16T03:02:54;16.65;;;10.00;;
53903;SDS011;39812;52.430;16.936;2022-10-16T03:05:19;18.40;;;10.40;;
53903;SDS011;39812;52.430;16.936;2022-10-16T03:07:45;21.13;;;11.32;;
53903;SDS011;39812;52.430;16.936;2022-10-16T03:10:10;19.42;;;11.00;;
53903;SDS011;39812;52.430;16.936;2022-10-16T03:12:36;19.42;;;10.82;;
53903;SDS011;39812;52.430;16.936;2022-10-16T03:15:01;19.60;;;11.25;;
53903;SDS011;39812;52.430;16.936;2022-10-16T03:17:27;21.13;;;11.80;;
53903;SDS011;39812;52.430;16.936;2022-10-16T03:19:53;16.67;;;10.57;;
53903;SDS011;39812;52.430;16.936;2022-10-16T03:22:18;19.58;;;10.88;;
53903;SDS011;39812;52.430;16.936;2022-10-16T03:24:44;19.05;;;11.18;;
53903;SDS011;39812;52.430;16.936;2022-10-16T03:27:09;23.75;;;12.68;;
53903;SDS011;39812;52.430;16.936;2022-10-16T03:29:35;18.80;;;11.75;;
53903;SDS011;39812;52.430;16.936;2022-10-16T03:32:01;20.30;;;11.75;;
53903;SDS011;39812;52.430;16.936;2022-10-16T03:34:26;19.95;;;12.15;;
53903;SDS011;39812;52.430;16.936;2022-10-16T03:36:52;22.33;;;12.80;;
53903;SDS011;39812;52.430;16.936;2022-10-16T03:39:18;21.38;;;11.63;;
53903;SDS011;39812;52.430;16.936;2022-10-16T03:41:44;22.25;;;11.07;;
53903;SDS011;39812;52.430;16.936;2022-10-16T03:44:11;24.85;;;13.60;;
53903;SDS011;39812;52.430;16.936;2022-10-16T03:46:36;19.92;;;10.85;;
53903;SDS011;39812;52.430;16.936;2022-10-16T03:49:02;19.45;;;11.55;;
53903;SDS011;39812;52.430;16.936;2022-10-16T03:51:27;20.60;;;11.15;;
53903;SDS011;39812;52.430;16.936;2022-10-16T03:53:53;19.23;;;11.52;;
53903;SDS011;39812;52.430;16.936;2022-10-16T03:56:18;21.52;;;12.85;;
53903;SDS011;39812;52.430;16.936;2022-10-16T03:58:44;21.05;;;12.63;;
53903;SDS011;39812;52.430;16.936;2022-10-16T04:01:09;22.90;;;12.68;;
53903;SDS011;39812;52.430;16.936;2022-10-16T04:03:34;20.10;;;12.15;;
53903;SDS011;39812;52.430;16.936;2022-10-16T04:06:00;23.15;;;12.65;;
53903;SDS011;39812;52.430;16.936;2022-10-16T04:08:25;21.02;;;11.73;;
53903;SDS011;39812;52.430;16.936;2022-10-16T04:10:51;19.52;;;11.57;;
53903;SDS011;39812;52.430;16.936;2022-10-16T04:13:16;22.63;;;12.73;;
53903;SDS011;39812;52.430;16.936;2022-10-16T04:15:42;18.88;;;11.48;;
53903;SDS011;39812;52.430;16.936;2022-10-16T04:18:09;24.98;;;12.68;;
53903;SDS011;39812;52.430;16.936;2022-10-16T04:20:34;21.50;;;12.57;;
53903;SDS011;39812;52.430;16.936;2022-10-16T04:23:00;20.63;;;12.43;;
53903;SDS011;39812;52.430;16.936;2022-10-16T04:25:25;18.48;;;11.13;;
53903;SDS011;39812;52.430;16.936;2022-10-16T04:27:52;23.85;;;12.48;;
53903;SDS011;39812;52.430;16.936;2022-10-16T04:30:18;19.52;;;12.13;;
53903;SDS011;39812;52.430;16.936;2022-10-16T04:32:47;19.63;;;11.85;;
53903;SDS011;39812;52.430;16.936;2022-10-16T04:35:14;19.65;;;11.82;;
53903;SDS011;39812;52.430;16.936;2022-10-16T04:37:40;21.10;;;12.05;;
53903;SDS011;39812;52.430;16.936;2022-10-16T04:40:06;20.02;;;11.38;;
53903;SDS011;39812;52.430;16.936;2022-10-16T04:42:32;20.77;;;11.73;;
53903;SDS011;39812;52.430;16.936;2022-10-16T04:44:57;23.40;;;12.35;;
53903;SDS011;39812;52.430;16.936;2022-10-16T04:47:22;21.75;;;12.90;;
53903;SDS011;39812;52.430;16.936;2022-10-16T04:49:48;23.00;;;12.38;;
53903;SDS011;39812;52.430;16.936;2022-10-16T04:52:13;23.38;;;12.35;;
53903;SDS011;39812;52.430;16.936;2022-10-16T04:54:39;21.40;;;12.73;;
53903;SDS011;39812;52.430;16.936;2022-10-16T04:57:05;22.40;;;11.70;;
53903;SDS011;39812;52.430;16.936;2022-10-16T04:59:31;22.52;;;12.35;;
53903;SDS011;39812;52.430;16.936;2022-10-16T05:01:56;24.10;;;12.80;;
53903;SDS011;39812;52.430;16.936;2022-10-16T05:04:22;21.00;;;12.23;;
53903;SDS011;39812;52.430;16.936;2022-10-16T05:06:48;25.23;;;13.20;;
53903;SDS011;39812;52.430;16.936;2022-10-16T05:09:13;24.33;;;12.60;;
53903;SDS011;39812;52.430;16.936;2022-10-16T05:11:38;22.35;;;12.38;;
53903;SDS011;39812;52.430;16.936;2022-10-16T05:14:04;21.77;;;12.48;;
53903;SDS011;39812;52.430;16.936;2022-10-16T05:16:30;20.70;;;12.05;;
53903;SDS011;39812;52.430;16.936;2022-10-16T05:18:55;22.95;;;12.90;;
53903;SDS011;39812;52.430;16.936;2022-10-16T05:21:21;21.90;;;12.60;;
53903;SDS011;39812;52.430;16.936;2022-10-16T05:23:47;20.60;;;12.32;;
53903;SDS011;39812;52.430;16.936;2022-10-16T05:26:12;25.23;;;13.73;;
53903;SDS011;39812;52.430;16.936;2022-10-16T05:28:38;21.63;;;12.82;;
53903;SDS011;39812;52.430;16.936;2022-10-16T05:31:04;21.48;;;12.45;;
53903;SDS011;39812;52.430;16.936;2022-10-16T05:33:31;22.40;;;12.98;;
53903;SDS011;39812;52.430;16.936;2022-10-16T05:35:57;20.08;;;12.50;;
53903;SDS011;39812;52.430;16.936;2022-10-16T05:38:26;22.50;;;12.75;;
53903;SDS011;39812;52.430;16.936;2022-10-16T05:40:52;22.10;;;12.77;;
53903;SDS011;39812;52.430;16.936;2022-10-16T05:43:18;20.77;;;12.77;;
53903;SDS011;39812;52.430;16.936;2022-10-16T05:45:45;22.35;;;13.18;;
53903;SDS011;39812;52.430;16.936;2022-10-16T05:48:21;22.02;;;13.23;;
53903;SDS011;39812;52.430;16.936;2022-10-16T05:50:48;24.83;;;13.40;;
53903;SDS011;39812;52.430;16.936;2022-10-16T05:53:13;21.30;;;12.45;;
53903;SDS011;39812;52.430;16.936;2022-10-16T05:55:38;22.60;;;13.02;;
53903;SDS011;39812;52.430;16.936;2022-10-16T05:58:04;23.63;;;12.77;;
53903;SDS011;39812;52.430;16.936;2022-10-16T06:00:29;20.48;;;12.15;;
53903;SDS011;39812;52.430;16.936;2022-10-16T06:02:55;23.60;;;12.40;;
53903;SDS011;39812;52.430;16.936;2022-10-16T06:05:20;25.15;;;14.50;;
53903;SDS011;39812;52.430;16.936;2022-10-16T06:07:46;23.88;;;13.55;;
53903;SDS011;39812;52.430;16.936;2022-10-16T06:10:11;21.85;;;13.55;;
53903;SDS011;39812;52.430;16.936;2022-10-16T06:12:37;20.98;;;13.70;;
53903;SDS011;39812;52.430;16.936;2022-10-16T06:15:02;22.88;;;13.05;;
53903;SDS011;39812;52.430;16.936;2022-10-16T06:17:28;22.35;;;13.18;;
53903;SDS011;39812;52.430;16.936;2022-10-16T06:19:53;22.55;;;13.23;;
53903;SDS011;39812;52.430;16.936;2022-10-16T06:22:19;20.55;;;12.30;;
53903;SDS011;39812;52.430;16.936;2022-10-16T06:24:45;21.45;;;12.27;;
53903;SDS011;39812;52.430;16.936;2022-10-16T06:27:11;21.23;;;13.35;;
53903;SDS011;39812;52.430;16.936;2022-10-16T06:29:36;23.63;;;13.10;;
53903;SDS011;39812;52.430;16.936;2022-10-16T06:32:02;22.17;;;12.52;;
53903;SDS011;39812;52.430;16.936;2022-10-16T06:34:27;23.05;;;14.23;;
53903;SDS011;39812;52.430;16.936;2022-10-16T06:36:53;26.50;;;12.88;;
53903;SDS011;39812;52.430;16.936;2022-10-16T06:39:18;20.65;;;12.30;;
53903;SDS011;39812;52.430;16.936;2022-10-16T06:41:44;22.52;;;13.45;;
53903;SDS011;39812;52.430;16.936;2022-10-16T06:44:09;22.08;;;13.40;;
53903;SDS011;39812;52.430;16.936;2022-10-16T06:46:35;21.65;;;13.50;;
53903;SDS011;39812;52.430;16.936;2022-10-16T06:49:00;21.58;;;13.25;;
53903;SDS011;39812;52.430;16.936;2022-10-16T06:51:26;24.27;;;13.82;;
53903;SDS011;39812;52.430;16.936;2022-10-16T06:53:55;19.67;;;12.15;;
53903;SDS011;39812;52.430;16.936;2022-10-16T06:56:24;20.45;;;12.82;;
53903;SDS011;39812;52.430;16.936;2022-10-16T06:58:52;18.75;;;11.52;;
53903;SDS011;39812;52.430;16.936;2022-10-16T07:01:19;20.55;;;12.65;;
53903;SDS011;39812;52.430;16.936;2022-10-16T07:03:45;20.45;;;12.43;;
53903;SDS011;39812;52.430;16.936;2022-10-16T07:06:13;19.88;;;12.02;;
53903;SDS011;39812;52.430;16.936;2022-10-16T07:08:40;19.05;;;11.95;;
53903;SDS011;39812;52.430;16.936;2022-10-16T07:11:08;20.63;;;11.52;;
53903;SDS011;39812;52.430;16.936;2022-10-16T07:13:36;20.33;;;12.27;;
53903;SDS011;39812;52.430;16.936;2022-10-16T07:16:06;17.60;;;12.35;;
53903;SDS011;39812;52.430;16.936;2022-10-16T07:18:32;19.95;;;11.70;;
53903;SDS011;39812;52.430;16.936;2022-10-16T07:21:05;19.45;;;12.18;;
53903;SDS011;39812;52.430;16.936;2022-10-16T07:23:31;20.02;;;12.65;;
53903;SDS011;39812;52.430;16.936;2022-10-16T07:25:57;18.30;;;12.07;;
53903;SDS011;39812;52.430;16.936;2022-10-16T07:28:22;19.40;;;11.80;;
53903;SDS011;39812;52.430;16.936;2022-10-16T07:30:48;19.13;;;12.20;;
53903;SDS011;39812;52.430;16.936;2022-10-16T07:33:13;15.88;;;11.60;;
53903;SDS011;39812;52.430;16.936;2022-10-16T07:35:49;18.45;;;11.80;;
53903;SDS011;39812;52.430;16.936;2022-10-16T07:38:19;17.33;;;11.48;;
53903;SDS011;39812;52.430;16.936;2022-10-16T07:40:45;18.73;;;11.55;;
53903;SDS011;39812;52.430;16.936;2022-10-16T07:43:10;15.38;;;10.70;;
53903;SDS011;39812;52.430;16.936;2022-10-16T07:45:36;15.77;;;10.80;;
53903;SDS011;39812;52.430;16.936;2022-10-16T07:48:02;15.32;;;10.90;;
53903;SDS011;39812;52.430;16.936;2022-10-16T07:50:27;17.95;;;10.23;;
53903;SDS011;39812;52.430;16.936;2022-10-16T07:52:53;15.95;;;10.90;;
53903;SDS011;39812;52.430;16.936;2022-10-16T07:55:18;18.27;;;11.70;;
53903;SDS011;39812;52.430;16.936;2022-10-16T07:57:44;14.77;;;10.43;;
53903;SDS011;39812;52.430;16.936;2022-10-16T08:00:09;14.63;;;9.98;;
53903;SDS011;39812;52.430;16.936;2022-10-16T08:02:41;14.88;;;10.55;;
53903;SDS011;39812;52.430;16.936;2022-10-16T08:05:07;15.93;;;10.63;;
53903;SDS011;39812;52.430;16.936;2022-10-16T08:07:33;16.80;;;11.18;;
53903;SDS011;39812;52.430;16.936;2022-10-16T08:09:58;17.67;;;10.30;;
53903;SDS011;39812;52.430;16.936;2022-10-16T08:12:25;23.25;;;11.05;;
53903;SDS011;39812;52.430;16.936;2022-10-16T08:14:50;16.05;;;9.85;;
53903;SDS011;39812;52.430;16.936;2022-10-16T08:17:16;17.17;;;10.45;;
53903;SDS011;39812;52.430;16.936;2022-10-16T08:19:45;17.40;;;10.68;;
53903;SDS011;39812;52.430;16.936;2022-10-16T08:22:11;15.60;;;10.35;;
53903;SDS011;39812;52.430;16.936;2022-10-16T08:24:37;14.80;;;10.40;;
53903;SDS011;39812;52.430;16.936;2022-10-16T08:27:02;14.57;;;10.30;;
53903;SDS011;39812;52.430;16.936;2022-10-16T08:29:29;15.07;;;10.13;;
53903;SDS011;39812;52.430;16.936;2022-10-16T08:31:54;16.15;;;10.40;;
53903;SDS011;39812;52.430;16.936;2022-10-16T08:34:20;17.02;;;10.25;;
53903;SDS011;39812;52.430;16.936;2022-10-16T08:36:45;16.92;;;9.82;;
53903;SDS011;39812;52.430;16.936;2022-10-16T08:39:11;13.90;;;9.68;;
53903;SDS011;39812;52.430;16.936;2022-10-16T08:47:16;13.95;;;9.18;;
53903;SDS011;39812;52.430;16.936;2022-10-16T08:49:53;14.85;;;9.77;;
53903;SDS011;39812;52.430;16.936;2022-10-16T08:52:23;14.88;;;8.88;;
53903;SDS011;39812;52.430;16.936;2022-10-16T08:54:53;13.43;;;8.73;;
53903;SDS011;39812;52.430;16.936;2022-10-16T08:57:21;14.60;;;9.35;;
53903;SDS011;39812;52.430;16.936;2022-10-16T08:59:47;12.27;;;8.25;;
53903;SDS011;39812;52.430;16.936;2022-10-16T09:07:54;11.23;;;7.70;;
53903;SDS011;39812;52.430;16.936;2022-10-16T09:13:19;12.35;;;7.38;;
53903;SDS011;39812;52.430;16.936;2022-10-16T09:15:56;11.30;;;7.38;;
53903;SDS011;39812;52.430;16.936;2022-10-16T09:18:48;9.75;;;7.00;;
53903;SDS011;39812;52.430;16.936;2022-10-16T09:21:21;15.25;;;7.38;;
53903;SDS011;39812;52.430;16.936;2022-10-16T09:23:48;8.98;;;6.45;;
53903;SDS011;39812;52.430;16.936;2022-10-16T09:26:15;8.93;;;6.25;;
53903;SDS011;39812;52.430;16.936;2022-10-16T09:28:43;8.68;;;6.65;;
53903;SDS011;39812;52.430;16.936;2022-10-16T09:31:15;9.75;;;6.40;;
53903;SDS011;39812;52.430;16.936;2022-10-16T09:33:43;9.02;;;6.40;;
53903;SDS011;39812;52.430;16.936;2022-10-16T09:36:12;8.75;;;6.55;;
53903;SDS011;39812;52.430;16.936;2022-10-16T09:38:39;8.70;;;6.57;;
53903;SDS011;39812;52.430;16.936;2022-10-16T09:41:13;11.27;;;6.97;;
53903;SDS011;39812;52.430;16.936;2022-10-16T09:43:41;10.88;;;7.35;;
53903;SDS011;39812;52.430;16.936;2022-10-16T09:46:22;11.50;;;7.00;;
53903;SDS011;39812;52.430;16.936;2022-10-16T09:49:01;10.95;;;7.65;;
53903;SDS011;39812;52.430;16.936;2022-10-16T09:51:43;13.15;;;7.35;;
53903;SDS011;39812;52.430;16.936;2022-10-16T09:56:34;9.07;;;6.80;;
53903;SDS011;39812;52.430;16.936;2022-10-16T09:59:15;10.90;;;7.03;;
53903;SDS011;39812;52.430;16.936;2022-10-16T10:01:43;9.18;;;5.68;;
53903;SDS011;39812;52.430;16.936;2022-10-16T10:04:15;8.10;;;5.70;;
53903;SDS011;39812;52.430;16.936;2022-10-16T10:06:43;9.65;;;6.07;;
53903;SDS011;39812;52.430;16.936;2022-10-16T10:09:30;8.20;;;5.85;;
53903;SDS011;39812;52.430;16.936;2022-10-16T10:12:03;6.20;;;4.68;;
53903;SDS011;39812;52.430;16.936;2022-10-16T10:14:46;8.98;;;5.80;;
53903;SDS011;39812;52.430;16.936;2022-10-16T10:19:46;14.93;;;5.93;;
53903;SDS011;39812;52.430;16.936;2022-10-16T10:22:19;11.70;;;4.70;;
53903;SDS011;39812;52.430;16.936;2022-10-16T10:24:56;7.07;;;4.88;;
53903;SDS011;39812;52.430;16.936;2022-10-16T10:27:31;8.38;;;5.13;;
53903;SDS011;39812;52.430;16.936;2022-10-16T10:30:02;6.10;;;5.38;;
53903;SDS011;39812;52.430;16.936;2022-10-16T10:35:19;7.93;;;5.50;;
53903;SDS011;39812;52.430;16.936;2022-10-16T10:38:06;9.45;;;5.35;;
53903;SDS011;39812;52.430;16.936;2022-10-16T10:43:45;6.15;;;4.95;;
53903;SDS011;39812;52.430;16.936;2022-10-16T10:46:30;9.07;;;5.20;;
53903;SDS011;39812;52.430;16.936;2022-10-16T10:49:11;7.90;;;5.85;;
53903;SDS011;39812;52.430;16.936;2022-10-16T10:52:02;10.57;;;5.90;;
53903;SDS011;39812;52.430;16.936;2022-10-16T10:54:50;7.45;;;5.57;;
53903;SDS011;39812;52.430;16.936;2022-10-16T11:03:49;7.20;;;6.13;;
53903;SDS011;39812;52.430;16.936;2022-10-16T11:06:22;9.00;;;6.25;;
53903;SDS011;39812;52.430;16.936;2022-10-16T11:09:17;7.30;;;5.70;;
53903;SDS011;39812;52.430;16.936;2022-10-16T11:11:50;7.75;;;5.88;;
53903;SDS011;39812;52.430;16.936;2022-10-16T11:14:35;8.13;;;6.28;;
53903;SDS011;39812;52.430;16.936;2022-10-16T11:17:10;7.53;;;5.70;;
53903;SDS011;39812;52.430;16.936;2022-10-16T11:25:00;7.07;;;5.18;;
53903;SDS011;39812;52.430;16.936;2022-10-16T11:27:37;6.32;;;5.07;;
53903;SDS011;39812;52.430;16.936;2022-10-16T11:30:13;7.78;;;5.18;;
53903;SDS011;39812;52.430;16.936;2022-10-16T11:41:33;6.15;;;4.40;;
53903;SDS011;39812;52.430;16.936;2022-10-16T11:47:00;5.38;;;3.60;;
53903;SDS011;39812;52.430;16.936;2022-10-16T11:50:06;4.07;;;2.88;;
53903;SDS011;39812;52.430;16.936;2022-10-16T12:03:34;5.25;;;3.05;;
53903;SDS011;39812;52.430;16.936;2022-10-16T12:08:57;4.38;;;3.13;;
53903;SDS011;39812;52.430;16.936;2022-10-16T12:11:36;3.90;;;2.97;;
53903;SDS011;39812;52.430;16.936;2022-10-16T12:16:38;3.67;;;2.90;;
53903;SDS011;39812;52.430;16.936;2022-10-16T12:19:17;3.90;;;2.95;;
53903;SDS011;39812;52.430;16.936;2022-10-16T12:21:44;4.75;;;3.35;;
53903;SDS011;39812;52.430;16.936;2022-10-16T12:26:57;6.70;;;2.92;;
53903;SDS011;39812;52.430;16.936;2022-10-16T12:29:28;5.43;;;2.85;;
53903;SDS011;39812;52.430;16.936;2022-10-16T12:31:57;4.97;;;3.05;;
53903;SDS011;39812;52.430;16.936;2022-10-16T12:34:26;3.97;;;3.08;;
53903;SDS011;39812;52.430;16.936;2022-10-16T12:37:13;4.40;;;2.97;;
53903;SDS011;39812;52.430;16.936;2022-10-16T12:39:44;4.75;;;2.92;;
53903;SDS011;39812;52.430;16.936;2022-10-16T12:42:22;3.95;;;2.45;;
53903;SDS011;39812;52.430;16.936;2022-10-16T12:44:50;3.45;;;2.67;;
53903;SDS011;39812;52.430;16.936;2022-10-16T12:49:57;3.88;;;2.60;;
53903;SDS011;39812;52.430;16.936;2022-10-16T12:52:27;4.60;;;2.70;;
53903;SDS011;39812;52.430;16.936;2022-10-16T12:54:55;3.10;;;2.60;;
53903;SDS011;39812;52.430;16.936;2022-10-16T13:00:29;5.05;;;2.00;;
53903;SDS011;39812;52.430;16.936;2022-10-16T13:03:21;2.58;;;1.92;;
53903;SDS011;39812;52.430;16.936;2022-10-16T13:06:32;2.90;;;2.25;;
53903;SDS011;39812;52.430;16.936;2022-10-16T13:09:10;2.45;;;2.08;;
53903;SDS011;39812;52.430;16.936;2022-10-16T13:11:57;2.20;;;1.83;;
53903;SDS011;39812;52.430;16.936;2022-10-16T13:17:45;3.25;;;2.20;;
53903;SDS011;39812;52.430;16.936;2022-10-16T13:20:24;3.38;;;2.35;;
53903;SDS011;39812;52.430;16.936;2022-10-16T13:23:09;3.10;;;2.50;;
53903;SDS011;39812;52.430;16.936;2022-10-16T13:28:39;3.90;;;2.53;;
53903;SDS011;39812;52.430;16.936;2022-10-16T13:31:04;4.03;;;2.40;;
53903;SDS011;39812;52.430;16.936;2022-10-16T13:33:36;6.22;;;2.60;;
53903;SDS011;39812;52.430;16.936;2022-10-16T13:36:04;3.17;;;2.38;;
53903;SDS011;39812;52.430;16.936;2022-10-16T13:38:31;3.30;;;2.80;;
53903;SDS011;39812;52.430;16.936;2022-10-16T13:43:31;4.00;;;3.10;;
53903;SDS011;39812;52.430;16.936;2022-10-16T13:46:17;3.83;;;3.00;;
53903;SDS011;39812;52.430;16.936;2022-10-16T13:48:44;4.18;;;2.63;;
53903;SDS011;39812;52.430;16.936;2022-10-16T13:51:28;2.80;;;2.50;;
53903;SDS011;39812;52.430;16.936;2022-10-16T13:53:55;4.03;;;2.80;;
53903;SDS011;39812;52.430;16.936;2022-10-16T13:56:22;3.15;;;2.47;;
53903;SDS011;39812;52.430;16.936;2022-10-16T13:58:57;4.45;;;3.03;;
53903;SDS011;39812;52.430;16.936;2022-10-16T14:01:25;4.10;;;2.97;;
53903;SDS011;39812;52.430;16.936;2022-10-16T14:03:59;4.07;;;3.10;;
53903;SDS011;39812;52.430;16.936;2022-10-16T14:06:30;3.63;;;2.90;;
53903;SDS011;39812;52.430;16.936;2022-10-16T14:08:59;4.05;;;2.90;;
53903;SDS011;39812;52.430;16.936;2022-10-16T14:11:33;3.35;;;2.85;;
53903;SDS011;39812;52.430;16.936;2022-10-16T14:14:11;4.80;;;2.90;;
53903;SDS011;39812;52.430;16.936;2022-10-16T14:16:37;5.93;;;2.60;;
53903;SDS011;39812;52.430;16.936;2022-10-16T14:19:13;4.03;;;2.63;;
53903;SDS011;39812;52.430;16.936;2022-10-16T14:21:40;4.57;;;2.70;;
53903;SDS011;39812;52.430;16.936;2022-10-16T14:24:13;4.38;;;3.13;;
53903;SDS011;39812;52.430;16.936;2022-10-16T14:26:47;4.07;;;2.78;;
53903;SDS011;39812;52.430;16.936;2022-10-16T14:29:14;3.70;;;2.97;;
53903;SDS011;39812;52.430;16.936;2022-10-16T14:31:53;3.33;;;2.60;;
53903;SDS011;39812;52.430;16.936;2022-10-16T14:34:25;3.17;;;2.83;;
53903;SDS011;39812;52.430;16.936;2022-10-16T14:37:05;4.35;;;2.72;;
53903;SDS011;39812;52.430;16.936;2022-10-16T14:39:34;5.85;;;3.03;;
53903;SDS011;39812;52.430;16.936;2022-10-16T14:42:00;6.18;;;3.00;;
53903;SDS011;39812;52.430;16.936;2022-10-16T14:44:27;3.50;;;3.15;;
53903;SDS011;39812;52.430;16.936;2022-10-16T14:46:56;4.50;;;2.92;;
53903;SDS011;39812;52.430;16.936;2022-10-16T14:49:22;3.25;;;2.55;;
53903;SDS011;39812;52.430;16.936;2022-10-16T14:51:49;3.22;;;2.72;;
53903;SDS011;39812;52.430;16.936;2022-10-16T14:54:15;5.88;;;2.83;;
53903;SDS011;39812;52.430;16.936;2022-10-16T14:56:43;7.28;;;3.35;;
53903;SDS011;39812;52.430;16.936;2022-10-16T14:59:37;3.45;;;2.65;;
53903;SDS011;39812;52.430;16.936;2022-10-16T15:02:20;4.32;;;2.95;;
53903;SDS011;39812;52.430;16.936;2022-10-16T15:05:02;2.80;;;2.33;;
53903;SDS011;39812;52.430;16.936;2022-10-16T15:07:52;3.33;;;2.17;;
53903;SDS011;39812;52.430;16.936;2022-10-16T15:10:20;2.55;;;2.00;;
53903;SDS011;39812;52.430;16.936;2022-10-16T15:12:47;4.60;;;2.22;;
53903;SDS011;39812;52.430;16.936;2022-10-16T15:15:21;3.00;;;1.80;;
53903;SDS011;39812;52.430;16.936;2022-10-16T15:17:49;2.35;;;1.67;;
53903;SDS011;39812;52.430;16.936;2022-10-16T15:20:18;3.15;;;1.83;;
53903;SDS011;39812;52.430;16.936;2022-10-16T15:22:44;2.78;;;1.73;;
53903;SDS011;39812;52.430;16.936;2022-10-16T15:25:15;2.83;;;1.70;;
53903;SDS011;39812;52.430;16.936;2022-10-16T15:30:20;2.80;;;1.60;;
53903;SDS011;39812;52.430;16.936;2022-10-16T15:32:45;2.35;;;1.85;;
53903;SDS011;39812;52.430;16.936;2022-10-16T15:35:11;3.67;;;2.00;;
53903;SDS011;39812;52.430;16.936;2022-10-16T15:37:37;3.10;;;1.77;;
53903;SDS011;39812;52.430;16.936;2022-10-16T15:40:02;2.83;;;2.33;;
53903;SDS011;39812;52.430;16.936;2022-10-16T15:42:28;2.70;;;1.80;;
53903;SDS011;39812;52.430;16.936;2022-10-16T15:44:53;2.67;;;2.00;;
53903;SDS011;39812;52.430;16.936;2022-10-16T15:47:19;3.17;;;1.60;;
53903;SDS011;39812;52.430;16.936;2022-10-16T15:49:44;2.92;;;2.13;;
53903;SDS011;39812;52.430;16.936;2022-10-16T15:52:10;3.67;;;1.80;;
53903;SDS011;39812;52.430;16.936;2022-10-16T15:54:36;3.72;;;2.22;;
53903;SDS011;39812;52.430;16.936;2022-10-16T15:57:02;3.17;;;2.10;;
53903;SDS011;39812;52.430;16.936;2022-10-16T15:59:27;2.58;;;2.00;;
53903;SDS011;39812;52.430;16.936;2022-10-16T16:01:53;3.45;;;2.08;;
53903;SDS011;39812;52.430;16.936;2022-10-16T16:04:18;2.88;;;1.98;;
53903;SDS011;39812;52.430;16.936;2022-10-16T16:06:44;4.80;;;2.22;;